createdAt,value
2017-12-16T00:06:43.998Z,85.8
2017-12-16T00:16:58.255Z,85.8
2017-12-16T00:27:12.460Z,85.8
2017-12-16T00:37:26.193Z,85.8
2017-12-16T00:47:39.497Z,85.5
2017-12-16T00:57:53.053Z,85.3
2017-12-16T01:08:05.221Z,85.3
2017-12-16T01:18:16.696Z,85.2
2017-12-16T01:28:30.851Z,85.4
2017-12-16T01:38:44.970Z,85.7
2017-12-16T01:48:59.316Z,85.7
2017-12-16T01:59:13.475Z,85.7
2017-12-16T02:09:27.379Z,85.7
2017-12-16T02:19:40.649Z,85.9
2017-12-16T02:29:54.962Z,86.0
2017-12-16T02:40:08.991Z,86.0
2017-12-16T02:50:22.335Z,86.0
2017-12-16T03:00:35.570Z,86.2
2017-12-16T03:10:48.694Z,86.5
2017-12-16T03:21:00.328Z,86.5
2017-12-16T03:31:14.612Z,86.5
2017-12-16T03:41:28.845Z,86.3
2017-12-16T03:51:40.870Z,86.3
2017-12-16T04:01:54.940Z,86.2
2017-12-16T04:12:08.550Z,86.2
2017-12-16T04:22:22.828Z,85.9
2017-12-16T04:32:36.520Z,86.1
2017-12-16T04:42:50.185Z,85.9
2017-12-16T04:53:04.580Z,86.1
2017-12-16T05:03:18.499Z,86.1
2017-12-16T05:13:32.840Z,86.1
2017-12-16T05:23:46.795Z,86.1
2017-12-16T05:34:01.298Z,85.7
2017-12-16T05:44:15.549Z,85.6
2017-12-16T05:54:29.945Z,85.5
2017-12-16T06:04:43.888Z,85.5
2017-12-16T06:14:58.283Z,85.4
2017-12-16T06:25:12.310Z,85.6
2017-12-16T06:35:25.970Z,85.5
2017-12-16T06:45:38.077Z,85.3
2017-12-16T06:55:51.974Z,85.0
2017-12-16T07:06:36.738Z,85.4
2017-12-16T07:16:50.367Z,85.3
2017-12-16T07:27:05.075Z,85.7
2017-12-16T07:37:18.761Z,85.9
2017-12-16T07:47:32.491Z,85.8
2017-12-16T07:57:45.892Z,85.8
2017-12-16T08:07:57.070Z,85.7
2017-12-16T08:18:41.601Z,85.6
2017-12-16T08:28:55.157Z,85.7
2017-12-16T08:39:09.603Z,85.8
2017-12-16T08:49:23.767Z,86.0
2017-12-16T08:59:37.941Z,86.3
2017-12-16T09:09:52.155Z,86.4
2017-12-16T09:20:06.539Z,86.6
2017-12-16T09:30:20.718Z,86.6
2017-12-16T09:40:34.980Z,86.5
2017-12-16T09:50:49.446Z,87.1
2017-12-16T10:01:03.807Z,87.7
2017-12-16T10:11:17.784Z,87.7
2017-12-16T10:21:31.697Z,87.2
2017-12-16T10:31:46.167Z,86.8
2017-12-16T10:42:00.144Z,86.6
2017-12-16T10:52:14.428Z,86.7
2017-12-16T11:02:28.749Z,86.8
2017-12-16T11:12:43.546Z,87.4
2017-12-16T11:22:57.361Z,87.9
2017-12-16T11:33:11.413Z,87.7
2017-12-16T11:43:25.870Z,87.7
2017-12-16T11:53:39.472Z,87.7
2017-12-16T12:03:53.163Z,87.4
2017-12-16T12:14:07.539Z,87.1
2017-12-16T12:24:21.440Z,88.2
2017-12-16T12:35:23.966Z,87.6
2017-12-16T12:46:09.160Z,87.2
2017-12-16T12:56:54.769Z,87.5
2017-12-16T13:07:40.291Z,87.4
2017-12-16T13:18:31.990Z,87.1
2017-12-16T13:28:54.821Z,86.5
2017-12-16T13:39:12.982Z,86.3
2017-12-16T13:50:02.431Z,86.2
2017-12-16T14:00:18.851Z,85.9
2017-12-16T14:10:34.784Z,85.8
2017-12-16T14:20:50.418Z,85.6
2017-12-16T14:31:45.929Z,85.7
2017-12-16T14:42:06.451Z,85.6
2017-12-16T14:52:26.271Z,85.6
2017-12-16T15:02:40.234Z,85.5
2017-12-16T15:13:30.429Z,85.3
2017-12-16T15:23:43.842Z,85.2
2017-12-16T15:34:28.662Z,85.3
2017-12-16T15:44:42.095Z,85.3
2017-12-16T15:54:56.009Z,85.2
2017-12-16T16:06:49.188Z,85.1
2017-12-16T16:17:03.613Z,85.1
2017-12-16T16:27:17.570Z,85.2
2017-12-16T16:38:02.267Z,85.4
2017-12-16T16:48:15.458Z,85.2
2017-12-16T16:58:29.082Z,85.2
2017-12-16T17:08:43.199Z,85.5
2017-12-16T17:18:57.695Z,85.7
2017-12-16T17:29:12.091Z,85.4
2017-12-16T17:39:56.938Z,85.3
2017-12-16T17:50:10.749Z,85.1
2017-12-16T18:00:24.863Z,85.0
2017-12-16T18:10:39.177Z,85.2
2017-12-16T18:20:50.451Z,85.3
2017-12-16T18:31:01.235Z,85.3
2017-12-16T18:41:14.528Z,85.7
2017-12-16T18:52:12.072Z,85.7
2017-12-16T19:03:18.907Z,85.6
2017-12-16T19:14:25.794Z,85.3
2017-12-16T19:24:48.736Z,85.2
2017-12-16T19:36:07.185Z,85.2
2017-12-16T19:47:18.759Z,85.4
2017-12-16T19:57:51.038Z,85.1
2017-12-16T20:08:18.935Z,85.0
2017-12-16T20:19:07.776Z,85.0
2017-12-16T20:29:58.381Z,84.9
2017-12-16T20:40:49.319Z,84.9
2017-12-16T20:51:42.207Z,85.2
2017-12-16T21:02:03.955Z,85.2
2017-12-16T21:12:52.139Z,85.2
2017-12-16T21:23:05.709Z,85.2
2017-12-16T21:33:20.278Z,85.5
2017-12-16T21:43:33.977Z,85.4
2017-12-16T21:53:47.346Z,85.1
2017-12-16T22:04:01.687Z,85.1
2017-12-16T22:14:15.849Z,85.3
2017-12-16T22:24:26.885Z,85.2
2017-12-16T22:34:40.240Z,85.3
2017-12-16T22:44:54.390Z,85.4
2017-12-16T22:55:07.809Z,85.4
2017-12-16T23:05:21.891Z,85.7
2017-12-16T23:16:06.635Z,85.4
2017-12-16T23:26:52.089Z,85.4
2017-12-16T23:37:05.988Z,85.5
2017-12-16T23:47:19.868Z,85.5
2017-12-16T23:57:34.478Z,85.2
